Royal Pines, North Carolina
Current Conditions -  °F | °C
As of 4:54 AM on Sunday 23 Nov 2014 (Local Time) from KAVL Reporting Station
Overcast Overcast  
Wind Chill: 43°   Ceiling: 1900
Heat Index: 46°   Visibility: 10mi
Dew Point: 24°   Wind: 6mph
Humidity: 42%   Direction: 160°SSE
Pressure: 30.21"   Gusts: NA
Location:  35.4582°N, 82.5975°W
Report Text: KAVL 230954Z AUTO 16005KT 10SM OVC019 08/M04 A3021 RMK AO2 SLP226 T00781044
Loading
Personal Weather Stations






























Interactive Weather Map New forecast layout! Learn more

10-Day Weather Forecast

Advertisements
Track Severe Weather on mobile